Time;durP1;ratioP1;P1;durP2;ratioP2;P2;SDS_P1;SDS_P2;PMS_P1;PMS_P2;Temp;Humidity;BMP_temperature;BMP_pressure;BME280_temperature;BME280_humidity;BME280_pressure;Samples;Min_cycle;Max_cycle;Signal;HPM_P1;HPM_P2
2023/01/24 00:00:38;;;;;;;1.80;1.45;;;20.00;51.10;;;;;;5017876;28;20021;-66
2023/01/24 00:03:04;;;;;;;2.35;1.70;;;20.00;51.10;;;;;;5021583;28;20060;-65
2023/01/24 00:05:32;;;;;;;2.60;1.70;;;20.00;51.10;;;;;;5020027;28;20504;-66
2023/01/24 00:07:58;;;;;;;2.28;1.63;;;20.00;51.10;;;;;;5019416;28;20014;-66
2023/01/24 00:10:26;;;;;;;2.40;1.60;;;20.00;51.10;;;;;;5020310;28;20107;-65
2023/01/24 00:12:52;;;;;;;2.30;1.70;;;20.00;51.10;;;;;;5018879;28;20029;-66
2023/01/24 00:15:17;;;;;;;2.83;1.60;;;19.90;51.00;;;;;;5019302;28;20083;-66
2023/01/24 00:17:43;;;;;;;3.17;1.80;;;19.90;51.00;;;;;;5020493;28;20036;-66
2023/01/24 00:20:09;;;;;;;2.80;1.90;;;19.90;51.10;;;;;;5015712;28;20030;-65
2023/01/24 00:22:35;;;;;;;2.28;1.60;;;19.90;51.10;;;;;;5019626;28;20454;-66
2023/01/24 00:25:00;;;;;;;2.72;1.70;;;19.90;51.10;;;;;;5019581;28;20064;-66
2023/01/24 00:27:26;;;;;;;2.88;1.70;;;19.90;51.10;;;;;;5021129;28;20030;-66
2023/01/24 00:29:52;;;;;;;2.72;1.80;;;19.90;51.60;;;;;;5021587;28;20109;-66
2023/01/24 00:32:17;;;;;;;2.45;1.80;;;19.90;51.10;;;;;;5019076;28;20030;-66
2023/01/24 00:34:43;;;;;;;2.53;1.65;;;19.90;51.10;;;;;;5017749;28;20497;-65
2023/01/24 00:37:09;;;;;;;2.53;1.90;;;19.90;51.60;;;;;;5022852;28;20079;-66
2023/01/24 00:39:34;;;;;;;2.50;1.83;;;19.90;51.10;;;;;;5022724;28;20508;-66
2023/01/24 00:42:00;;;;;;;2.30;1.65;;;19.90;51.10;;;;;;5030636;28;20105;-66
2023/01/24 00:44:25;;;;;;;2.42;1.50;;;19.80;51.00;;;;;;5014539;28;20105;-66
2023/01/24 00:46:52;;;;;;;2.33;1.60;;;19.80;51.10;;;;;;5017160;28;20022;-66
2023/01/24 00:49:18;;;;;;;2.33;1.50;;;19.80;51.10;;;;;;5019713;28;20022;-66
2023/01/24 00:51:43;;;;;;;2.20;1.50;;;19.80;51.10;;;;;;5016774;28;20030;-66
2023/01/24 00:54:09;;;;;;;2.53;1.73;;;19.80;51.10;;;;;;5017286;28;20021;-66
2023/01/24 00:56:34;;;;;;;2.63;1.55;;;19.80;51.10;;;;;;5021065;28;20096;-66
2023/01/24 00:59:00;;;;;;;2.17;1.58;;;19.80;51.20;;;;;;5026502;28;20480;-66
2023/01/24 01:01:26;;;;;;;2.72;1.88;;;19.80;51.20;;;;;;5021184;28;20026;-66
2023/01/24 01:03:55;;;;;;;2.38;1.60;;;19.80;51.20;;;;;;5020138;28;20060;-66
2023/01/24 01:06:21;;;;;;;;;;;19.80;51.20;;;;;;5020345;28;20492;-66
2023/01/24 01:08:46;;;;;;;2.58;1.83;;;19.80;51.20;;;;;;5017489;28;19905;-66
2023/01/24 01:11:12;;;;;;;2.08;1.50;;;19.70;51.10;;;;;;5017803;28;20057;-66
2023/01/24 01:13:38;;;;;;;2.20;1.50;;;19.80;51.20;;;;;;5020859;28;20018;-65
2023/01/24 01:16:06;;;;;;;2.35;1.70;;;19.80;51.20;;;;;;5023480;28;20121;-66
2023/01/24 01:18:33;;;;;;;2.33;1.80;;;19.80;51.20;;;;;;5024637;28;20476;-66
2023/01/24 01:20:59;;;;;;;2.60;1.80;;;19.70;51.20;;;;;;5024585;28;20104;-66
2023/01/24 01:23:25;;;;;;;2.38;1.60;;;19.70;51.20;;;;;;5021407;28;20136;-66
2023/01/24 01:25:50;;;;;;;2.45;1.67;;;19.70;51.20;;;;;;5019347;28;20452;-66
2023/01/24 01:28:16;;;;;;;2.20;1.55;;;19.70;51.30;;;;;;5022211;28;20037;-67
2023/01/24 01:30:41;;;;;;;2.38;1.58;;;19.70;51.30;;;;;;5037071;28;20105;-66
2023/01/24 01:33:07;;;;;;;2.60;1.85;;;19.70;51.30;;;;;;5018035;28;20072;-65
2023/01/24 01:35:33;;;;;;;2.40;1.60;;;19.70;51.30;;;;;;5020774;28;20044;-66
2023/01/24 01:37:58;;;;;;;2.53;1.60;;;19.70;51.30;;;;;;5024612;28;20087;-66
2023/01/24 01:40:24;;;;;;;1.95;1.50;;;19.60;51.30;;;;;;5022380;28;20536;-66
2023/01/24 01:42:53;;;;;;;2.20;1.40;;;19.60;51.30;;;;;;5024609;28;20060;-66
2023/01/24 01:45:45;;;;;;;2.45;1.70;;;19.60;51.30;;;;;;5025952;28;20084;-65
2023/01/24 01:48:19;;;;;;;2.22;1.52;;;19.60;51.30;;;;;;5025777;28;20025;-65
2023/01/24 01:51:03;;;;;;;2.38;1.70;;;19.60;51.30;;;;;;5023497;28;20457;-66
2023/01/24 01:53:34;;;;;;;2.03;1.50;;;19.60;51.30;;;;;;5023657;28;20025;-65
2023/01/24 01:56:10;;;;;;;2.78;1.90;;;19.60;51.30;;;;;;5021453;28;20026;-66
2023/01/24 01:58:38;;;;;;;2.40;1.67;;;19.60;51.30;;;;;;5017911;28;20425;-66
2023/01/24 02:01:04;;;;;;;2.22;1.60;;;19.60;51.30;;;;;;5029823;28;20155;-66
2023/01/24 02:03:38;;;;;;;2.45;1.60;;;19.50;51.30;;;;;;5020034;28;20112;-66
2023/01/24 02:06:21;;;;;;;2.15;1.52;;;19.60;51.40;;;;;;5019519;28;20548;-66
2023/01/24 02:08:50;;;;;;;2.42;1.60;;;19.50;51.30;;;;;;5023660;28;20026;-65
2023/01/24 02:16:48;;;;;;;2.38;1.50;;;19.50;51.30;;;;;;5022976;28;20156;-65
2023/01/24 02:19:27;;;;;;;2.30;1.58;;;19.50;51.40;;;;;;5022016;28;20156;-66
2023/01/24 02:21:54;;;;;;;;;;;19.50;51.40;;;;;;5024848;28;20040;-65
2023/01/24 02:24:35;;;;;;;3.10;1.77;;;19.40;51.30;;;;;;5018081;28;19917;-65
2023/01/24 02:27:01;;;;;;;2.90;1.77;;;19.40;51.40;;;;;;5026582;28;20033;-67
2023/01/24 02:29:26;;;;;;;2.40;1.63;;;19.50;51.40;;;;;;5020505;28;20014;-66
2023/01/24 02:31:52;;;;;;;2.53;1.63;;;19.50;51.40;;;;;;5020055;28;20021;-66
2023/01/24 02:34:17;;;;;;;2.28;1.52;;;19.40;51.40;;;;;;5022902;28;20030;-66
2023/01/24 02:36:43;;;;;;;2.65;1.70;;;19.50;51.40;;;;;;5021515;28;20042;-66
2023/01/24 02:39:14;;;;;;;2.63;1.70;;;19.40;51.40;;;;;;5020654;28;20384;-66
2023/01/24 02:41:47;;;;;;;2.47;1.75;;;19.50;51.40;;;;;;5021483;28;20496;-65
2023/01/24 02:44:20;;;;;;;2.33;1.55;;;19.40;51.40;;;;;;5022853;28;20207;-66
2023/01/24 02:46:46;;;;;;;2.20;1.60;;;19.40;51.40;;;;;;5021571;28;20079;-66
2023/01/24 02:49:12;;;;;;;2.38;1.40;;;19.40;51.40;;;;;;5021137;28;20026;-66
2023/01/24 02:54:22;;;;;;;1.90;1.30;;;19.40;51.40;;;;;;5020921;28;20036;-65
2023/01/24 02:59:32;;;;;;;2.40;1.67;;;19.40;51.40;;;;;;5020916;28;20032;-67
2023/01/24 03:01:58;;;;;;;2.50;1.60;;;19.40;51.40;;;;;;5024072;28;20461;-65
2023/01/24 03:04:24;;;;;;;1.92;1.45;;;19.40;51.40;;;;;;5017595;28;20068;-65
2023/01/24 03:06:49;;;;;;;2.58;1.70;;;19.40;51.40;;;;;;5017287;28;20021;-66
2023/01/24 03:09:18;;;;;;;2.10;1.60;;;19.40;51.50;;;;;;5018356;28;20025;-66
2023/01/24 03:11:48;;;;;;;2.28;1.70;;;19.40;51.40;;;;;;5019576;28;20105;-65
2023/01/24 03:36:19;;;;;;;2.00;1.40;;;19.30;51.50;;;;;;5019080;28;20455;-66
2023/01/24 03:41:30;;;;;;;2.60;1.70;;;19.30;51.50;;;;;;5017774;28;20040;-65
2023/01/24 03:43:55;;;;;;;2.40;1.75;;;19.30;51.70;;;;;;5019403;28;20132;-66
2023/01/24 03:46:21;;;;;;;2.28;1.50;;;19.30;51.50;;;;;;5017976;28;20022;-66
2023/01/24 03:48:46;;;;;;;2.30;1.70;;;19.20;51.50;;;;;;5018914;28;20030;-65
2023/01/24 03:53:56;;;;;;;2.33;1.75;;;19.20;51.50;;;;;;5019621;28;20042;-66
2023/01/24 03:56:22;;;;;;;2.47;1.67;;;19.20;51.50;;;;;;5021362;28;20362;-66
2023/01/24 03:58:47;;;;;;;2.47;1.67;;;19.20;51.50;;;;;;5016353;28;20044;-67
2023/01/24 04:01:13;;;;;;;2.53;1.70;;;19.20;51.50;;;;;;5022353;28;20107;-66
2023/01/24 04:03:39;;;;;;;2.25;1.75;;;19.20;51.50;;;;;;5020797;28;20025;-65
2023/01/24 04:06:05;;;;;;;2.10;1.50;;;19.20;51.60;;;;;;5021693;28;20075;-67
2023/01/24 04:08:30;;;;;;;2.30;1.58;;;19.20;51.50;;;;;;5017938;28;20030;-65
2023/01/24 04:10:56;;;;;;;2.63;1.73;;;19.20;51.50;;;;;;5020171;28;20088;-66
2023/01/24 04:13:22;;;;;;;2.03;1.60;;;19.20;51.50;;;;;;5019925;28;20064;-66
2023/01/24 04:15:48;;;;;;;2.30;1.60;;;19.20;51.50;;;;;;5021523;28;20061;-65
2023/01/24 04:18:13;;;;;;;2.60;1.80;;;19.20;51.50;;;;;;5017156;28;20477;-66
2023/01/24 04:20:39;;;;;;;2.28;1.50;;;19.20;51.60;;;;;;5020353;28;20042;-66
2023/01/24 04:23:06;;;;;;;2.40;1.70;;;19.20;51.60;;;;;;5017705;28;20025;-65
2023/01/24 04:25:33;;;;;;;2.53;1.70;;;19.20;51.60;;;;;;5017350;28;20515;-65
2023/01/24 04:27:59;;;;;;;2.42;1.80;;;19.20;51.60;;;;;;5016656;28;20026;-66
2023/01/24 04:30:25;;;;;;;2.58;1.80;;;19.20;51.60;;;;;;5019442;28;20032;-65
2023/01/24 04:32:51;;;;;;;3.22;1.70;;;19.20;51.60;;;;;;5017662;28;20030;-66
2023/01/24 04:35:22;;;;;;;3.22;1.90;;;19.20;51.60;;;;;;5017886;28;20022;-66
2023/01/24 04:37:47;;;;;;;2.50;1.73;;;19.20;51.60;;;;;;5018155;28;20473;-66
2023/01/24 04:40:14;;;;;;;2.50;1.70;;;19.20;51.60;;;;;;5019922;28;20091;-66
2023/01/24 04:42:45;;;;;;;2.25;1.70;;;19.20;51.60;;;;;;5018752;28;20037;-65
2023/01/24 04:45:11;;;;;;;2.40;1.65;;;19.10;51.60;;;;;;5015207;28;20040;-65
2023/01/24 04:47:37;;;;;;;2.67;1.88;;;19.20;51.60;;;;;;5023133;28;20033;-66
2023/01/24 04:50:03;;;;;;;2.55;1.85;;;19.20;51.60;;;;;;5023948;28;20420;-66
2023/01/24 04:52:29;;;;;;;2.33;1.60;;;19.20;51.60;;;;;;5021748;28;20440;-66
2023/01/24 04:54:55;;;;;;;2.55;1.73;;;19.20;51.60;;;;;;5023628;28;20116;-66
2023/01/24 04:57:20;;;;;;;2.20;1.60;;;19.20;51.70;;;;;;5020888;28;20026;-66
2023/01/24 04:59:46;;;;;;;2.78;1.88;;;19.20;51.60;;;;;;5023232;28;20058;-67
2023/01/24 05:02:11;;;;;;;2.80;1.73;;;19.20;51.60;;;;;;5022120;28;20041;-65
2023/01/24 05:04:37;;;;;;;2.38;1.55;;;19.20;51.70;;;;;;5022838;28;20032;-66
2023/01/24 05:07:03;;;;;;;3.08;1.88;;;19.20;51.70;;;;;;5037727;28;20390;-66
2023/01/24 05:09:28;;;;;;;2.53;1.67;;;19.20;51.70;;;;;;5020896;28;20049;-66
2023/01/24 05:12:03;;;;;;;2.40;1.60;;;19.10;51.70;;;;;;5025363;28;20071;-65
2023/01/24 05:14:29;;;;;;;1.92;1.40;;;19.20;51.80;;;;;;5026377;28;20467;-66
2023/01/24 05:16:54;;;;;;;3.00;1.80;;;19.10;52.30;;;;;;5022025;28;20053;-65
2023/01/24 05:19:20;;;;;;;2.40;1.70;;;19.10;51.70;;;;;;5022726;28;20022;-66
2023/01/24 05:21:46;;;;;;;2.47;1.60;;;19.10;51.80;;;;;;5022225;28;20018;-66
2023/01/24 05:24:11;;;;;;;2.67;1.83;;;19.10;51.80;;;;;;5030030;28;20144;-65
2023/01/24 05:26:37;;;;;;;2.60;1.80;;;19.10;51.80;;;;;;5023550;28;20049;-66
2023/01/24 05:29:03;;;;;;;2.40;1.60;;;19.10;51.90;;;;;;5030207;28;20120;-66
2023/01/24 05:31:28;;;;;;;2.28;1.60;;;19.10;52.00;;;;;;5022362;28;20021;-65
2023/01/24 05:33:54;;;;;;;2.60;1.70;;;19.10;52.00;;;;;;5022378;28;20117;-65
2023/01/24 05:36:22;;;;;;;2.38;1.60;;;19.10;52.00;;;;;;5021388;28;20489;-65
2023/01/24 05:38:48;;;;;;;2.30;1.50;;;19.10;52.00;;;;;;5020494;28;20393;-65
2023/01/24 05:41:20;;;;;;;2.60;1.70;;;19.10;52.10;;;;;;5021074;28;20051;-66
2023/01/24 05:43:46;;;;;;;2.58;1.70;;;19.10;52.00;;;;;;5020864;28;20053;-66
2023/01/24 05:46:18;;;;;;;2.28;1.60;;;19.10;52.00;;;;;;5021016;28;20431;-65
2023/01/24 05:48:44;;;;;;;4.22;1.60;;;19.10;52.10;;;;;;5024951;28;20044;-66
2023/01/24 05:51:12;;;;;;;2.42;1.70;;;19.20;52.10;;;;;;5023472;28;20018;-66
2023/01/24 05:53:39;;;;;;;2.47;1.67;;;19.10;52.10;;;;;;5023129;28;20034;-66
2023/01/24 05:56:14;;;;;;;2.60;1.60;;;19.10;52.10;;;;;;5019894;28;20042;-67
2023/01/24 05:58:41;;;;;;;2.20;1.40;;;19.10;52.20;;;;;;5023700;28;20029;-65
2023/01/24 06:01:08;;;;;;;2.35;1.70;;;19.10;52.40;;;;;;5020082;28;20084;-65
2023/01/24 06:03:36;;;;;;;2.40;1.63;;;19.10;52.50;;;;;;5022695;28;20489;-66
2023/01/24 06:06:02;;;;;;;2.38;1.60;;;19.10;52.60;;;;;;5020553;28;20034;-67
2023/01/24 06:08:28;;;;;;;2.50;1.75;;;19.10;52.50;;;;;;5019049;28;20385;-66
2023/01/24 06:10:53;;;;;;;3.35;1.90;;;19.10;52.50;;;;;;5020449;28;20711;-65
2023/01/24 06:13:19;;;;;;;2.80;1.70;;;19.10;52.60;;;;;;5021401;28;20029;-67
2023/01/24 06:15:45;;;;;;;2.70;1.75;;;19.10;52.60;;;;;;5019083;28;20030;-66
2023/01/24 06:18:14;;;;;;;2.88;1.83;;;19.10;52.70;;;;;;5021556;28;20053;-66
2023/01/24 06:20:40;;;;;;;2.05;1.42;;;19.10;52.70;;;;;;5024248;28;20490;-65
2023/01/24 06:23:09;;;;;;;2.78;1.70;;;19.10;52.70;;;;;;5021444;28;20092;-66
2023/01/24 06:25:35;;;;;;;2.60;1.67;;;19.10;52.80;;;;;;5020230;28;20441;-66
2023/01/24 06:28:02;;;;;;;4.18;1.73;;;19.10;52.80;;;;;;5020778;28;20034;-66
2023/01/24 06:30:27;;;;;;;2.55;1.52;;;19.10;52.80;;;;;;5019377;28;20388;-65
2023/01/24 06:33:15;;;;;;;2.92;1.83;;;19.10;52.80;;;;;;5020771;28;20057;-67
2023/01/24 06:35:43;;;;;;;2.50;1.55;;;19.10;52.90;;;;;;5022905;28;20368;-65
2023/01/24 06:38:21;;;;;;;3.45;1.90;;;19.00;52.80;;;;;;5019803;28;20391;-66
2023/01/24 06:40:50;;;;;;;4.00;1.60;;;19.10;52.90;;;;;;5022798;28;20388;-66
2023/01/24 06:43:15;;;;;;;3.15;1.70;;;19.10;52.90;;;;;;5021601;28;20037;-65
2023/01/24 06:45:41;;;;;;;3.50;1.65;;;19.10;52.90;;;;;;5018894;28;20030;-66
2023/01/24 06:48:07;;;;;;;2.53;1.70;;;19.10;52.90;;;;;;5022177;28;20014;-66
2023/01/24 06:50:33;;;;;;;2.85;1.50;;;19.10;52.90;;;;;;5025099;28;20091;-66
2023/01/24 06:52:58;;;;;;;2.65;1.55;;;19.10;52.90;;;;;;5019519;28;20718;-67
2023/01/24 06:55:24;;;;;;;4.25;1.80;;;19.10;52.90;;;;;;5021591;28;20045;-66
2023/01/24 06:58:00;;;;;;;2.63;1.77;;;19.10;52.90;;;;;;5024374;28;20124;-66
2023/01/24 07:00:28;;;;;;;3.25;1.77;;;19.00;52.90;;;;;;5020318;28;20030;-65
2023/01/24 07:03:02;;;;;;;3.28;1.63;;;19.10;53.00;;;;;;5022189;28;20528;-66
2023/01/24 07:05:28;;;;;;;3.75;1.63;;;19.10;53.00;;;;;;5020724;28;20054;-66
2023/01/24 07:07:54;;;;;;;2.25;1.48;;;19.10;52.90;;;;;;5017340;28;20064;-66
2023/01/24 07:10:20;;;;;;;3.15;1.77;;;19.10;53.00;;;;;;5025306;28;20091;-66
2023/01/24 07:12:46;;;;;;;2.45;1.52;;;19.10;53.00;;;;;;5021975;28;20026;-66
2023/01/24 07:15:12;;;;;;;2.90;1.67;;;19.10;53.50;;;;;;5021106;28;20431;-66
2023/01/24 07:17:38;;;;;;;2.60;1.60;;;19.00;52.90;;;;;;5020259;28;20387;-65
2023/01/24 07:20:04;;;;;;;2.45;1.48;;;19.00;52.90;;;;;;5022965;28;20029;-67
2023/01/24 07:22:30;;;;;;;2.47;1.50;;;19.10;52.90;;;;;;5020446;28;20042;-65
2023/01/24 07:24:56;;;;;;;3.08;1.80;;;19.10;53.00;;;;;;5018478;28;20072;-65
2023/01/24 07:27:22;;;;;;;3.10;1.73;;;19.00;52.90;;;;;;5022041;28;20021;-65
2023/01/24 07:29:48;;;;;;;2.85;1.80;;;19.10;53.00;;;;;;5017685;28;20418;-66
2023/01/24 07:32:13;;;;;;;2.20;1.50;;;19.00;52.90;;;;;;5018890;28;20030;-66
2023/01/24 07:34:39;;;;;;;2.58;1.70;;;19.00;52.80;;;;;;5018414;28;20421;-66
2023/01/24 07:37:08;;;;;;;2.75;1.80;;;19.10;52.90;;;;;;5028493;28;20116;-66
2023/01/24 07:39:34;;;;;;;2.75;1.60;;;19.00;52.90;;;;;;5019346;28;20030;-67
2023/01/24 07:41:59;;;;;;;2.60;1.67;;;19.00;52.90;;;;;;5020009;28;20377;-66
2023/01/24 07:44:25;;;;;;;4.18;1.63;;;19.00;52.80;;;;;;5025215;28;20121;-67
2023/01/24 07:46:50;;;;;;;2.63;1.60;;;19.00;52.90;;;;;;5021081;28;20561;-66
2023/01/24 07:49:16;;;;;;;2.53;1.58;;;19.00;52.90;;;;;;5020888;28;20036;-66
2023/01/24 07:51:42;;;;;;;2.33;1.33;;;19.00;52.80;;;;;;5019865;28;20504;-66
2023/01/24 07:54:08;;;;;;;2.70;1.70;;;19.10;52.90;;;;;;5018052;28;20056;-65
2023/01/24 07:56:33;;;;;;;2.95;1.58;;;19.00;52.80;;;;;;5021034;28;20028;-65
2023/01/24 07:58:59;;;;;;;2.50;1.50;;;19.10;52.90;;;;;;5021909;28;20025;-65
2023/01/24 08:01:25;;;;;;;2.30;1.40;;;19.00;52.80;;;;;;5021717;28;20030;-66
2023/01/24 08:03:58;;;;;;;2.40;1.70;;;19.00;52.90;;;;;;5019693;28;20029;-66
2023/01/24 08:06:24;;;;;;;2.97;1.75;;;19.00;52.90;;;;;;5018679;28;20128;-66
2023/01/24 08:08:49;;;;;;;2.72;1.52;;;19.00;52.80;;;;;;5022879;28;20053;-66
2023/01/24 08:11:18;;;;;;;2.58;1.40;;;19.00;53.10;;;;;;5016742;28;20634;-66
2023/01/24 08:13:44;;;;;;;2.88;1.58;;;19.00;52.70;;;;;;5017775;28;20044;-66
2023/01/24 08:16:10;;;;;;;2.72;1.50;;;19.00;52.70;;;;;;5016779;28;20396;-67
2023/01/24 08:18:40;;;;;;;2.20;1.35;;;19.00;53.20;;;;;;5021930;28;20472;-65
2023/01/24 08:21:06;;;;;;;;;;;19.00;52.70;;;;;;5018424;28;20472;-66
2023/01/24 08:23:31;;;;;;;3.00;1.42;;;19.00;52.80;;;;;;5019432;28;19928;-66
2023/01/24 08:25:58;;;;;;;2.90;1.42;;;19.00;52.80;;;;;;5016856;28;20030;-66
2023/01/24 08:28:24;;;;;;;2.70;1.88;;;19.00;52.80;;;;;;5017868;28;20560;-66
2023/01/24 08:30:50;;;;;;;2.78;1.60;;;19.00;52.80;;;;;;5019924;28;20014;-66
2023/01/24 08:33:18;;;;;;;2.70;1.35;;;19.00;52.80;;;;;;5019432;28;20163;-65
2023/01/24 08:35:47;;;;;;;2.17;1.40;;;19.00;52.80;;;;;;5019886;28;20392;-65
2023/01/24 08:38:14;;;;;;;2.95;1.60;;;19.00;52.80;;;;;;5018942;28;20684;-66
2023/01/24 08:40:45;;;;;;;2.75;1.67;;;19.00;52.80;;;;;;5018526;28;20047;-66
2023/01/24 08:43:10;;;;;;;2.40;1.42;;;19.00;52.80;;;;;;5017229;28;20036;-66
2023/01/24 08:45:39;;;;;;;2.38;1.40;;;19.00;52.80;;;;;;5018869;28;20029;-66
2023/01/24 08:48:04;;;;;;;2.47;1.40;;;19.00;52.80;;;;;;5016296;28;20481;-66
2023/01/24 08:50:30;;;;;;;2.58;1.42;;;19.00;52.80;;;;;;5017158;28;20122;-66
2023/01/24 08:52:56;;;;;;;2.95;1.60;;;19.00;52.80;;;;;;5017392;28;20033;-66
2023/01/24 08:55:23;;;;;;;2.55;1.50;;;19.00;52.80;;;;;;5018649;28;20538;-66
2023/01/24 08:57:49;;;;;;;2.85;1.58;;;19.00;52.80;;;;;;5016757;28;20493;-66
2023/01/24 09:00:15;;;;;;;3.05;1.50;;;19.00;52.80;;;;;;5018752;28;20037;-66
2023/01/24 09:02:41;;;;;;;2.25;1.40;;;19.00;52.80;;;;;;5020127;28;20029;-67
2023/01/24 09:05:07;;;;;;;3.00;1.35;;;19.00;52.80;;;;;;5019251;28;20457;-66
2023/01/24 09:07:36;;;;;;;2.58;1.50;;;19.00;52.80;;;;;;5017807;28;20107;-66
2023/01/24 09:10:02;;;;;;;2.58;1.40;;;19.00;52.80;;;;;;5019558;28;20022;-66
2023/01/24 09:12:28;;;;;;;2.67;1.50;;;19.00;52.80;;;;;;5017810;28;20079;-66
2023/01/24 09:14:53;;;;;;;2.00;1.40;;;19.00;52.80;;;;;;5017190;28;20473;-66
2023/01/24 09:17:19;;;;;;;2.13;1.30;;;19.00;52.80;;;;;;5021137;28;20041;-65
2023/01/24 09:19:45;;;;;;;1.88;1.20;;;19.00;52.80;;;;;;5018438;28;20033;-66
2023/01/24 09:22:10;;;;;;;2.67;1.50;;;19.00;52.80;;;;;;5016617;28;20041;-68
2023/01/24 09:24:36;;;;;;;1.80;1.20;;;19.00;52.80;;;;;;5016594;28;20037;-67
2023/01/24 09:27:01;;;;;;;2.28;1.35;;;19.00;52.70;;;;;;5018216;28;20035;-66
2023/01/24 09:29:27;;;;;;;2.30;1.30;;;19.00;52.70;;;;;;5019328;28;20113;-66
2023/01/24 09:31:54;;;;;;;2.25;1.40;;;19.00;52.70;;;;;;5019194;28;20092;-67
2023/01/24 09:34:20;;;;;;;2.17;1.33;;;19.00;52.70;;;;;;5023480;28;20052;-67
2023/01/24 09:36:48;;;;;;;2.78;1.60;;;19.00;52.60;;;;;;5039510;28;20065;-65
2023/01/24 09:39:14;;;;;;;2.25;1.30;;;19.00;52.50;;;;;;5023000;28;20024;-66
2023/01/24 09:41:59;;;;;;;2.10;1.20;;;19.00;52.50;;;;;;5039336;28;20037;-66
2023/01/24 09:44:42;;;;;;;2.63;1.58;;;19.00;52.30;;;;;;5023855;28;20036;-67
2023/01/24 09:47:26;;;;;;;2.28;1.40;;;19.00;52.40;;;;;;5021232;28;20036;-66
2023/01/24 09:50:01;;;;;;;2.30;1.20;;;19.00;52.40;;;;;;5020870;28;20366;-66
2023/01/24 09:52:38;;;;;;;2.28;1.35;;;19.00;52.90;;;;;;5023679;28;20472;-66
2023/01/24 09:55:08;;;;;;;2.42;1.40;;;19.00;52.50;;;;;;5027492;28;20022;-66
2023/01/24 09:57:49;;;;;;;1.80;1.20;;;19.00;52.50;;;;;;5021534;28;20026;-65
2023/01/24 10:00:26;;;;;;;1.85;1.17;;;19.00;52.50;;;;;;5021896;28;20481;-66
2023/01/24 10:02:55;;;;;;;2.55;1.40;;;19.00;52.50;;;;;;5018589;28;20061;-66
2023/01/24 10:05:24;;;;;;;;;;;19.00;52.60;;;;;;5024214;28;20572;-66
2023/01/24 10:07:55;;;;;;;1.92;1.30;;;19.00;52.60;;;;;;5020804;28;19912;-66
2023/01/24 10:10:50;;;;;;;1.88;1.20;;;19.00;52.60;;;;;;5020589;28;20071;-66
2023/01/24 10:13:25;;;;;;;2.28;1.33;;;19.00;52.50;;;;;;5018305;28;20030;-66
2023/01/24 10:16:02;;;;;;;1.92;1.20;;;19.00;52.50;;;;;;5022706;28;20026;-66
2023/01/24 10:18:34;;;;;;;2.53;1.50;;;19.00;52.60;;;;;;5020416;28;20034;-66
2023/01/24 10:21:20;;;;;;;2.35;1.30;;;19.00;52.60;;;;;;5021707;28;20405;-66
2023/01/24 10:24:08;;;;;;;1.90;1.20;;;19.00;52.60;;;;;;5021542;28;20123;-66
2023/01/24 10:26:42;;;;;;;2.03;1.40;;;19.00;52.60;;;;;;5021840;28;20035;-66
2023/01/24 10:29:14;;;;;;;3.17;1.52;;;19.00;52.60;;;;;;5021350;28;20392;-67
2023/01/24 10:31:45;;;;;;;2.85;1.40;;;18.90;52.60;;;;;;5020488;28;20477;-66
2023/01/24 10:34:25;;;;;;;1.95;1.40;;;18.90;52.50;;;;;;5022556;28;20461;-65
2023/01/24 10:36:57;;;;;;;2.10;1.30;;;19.00;52.60;;;;;;5025188;28;20021;-65
2023/01/24 10:39:23;;;;;;;2.50;1.40;;;18.90;52.50;;;;;;5017848;28;20033;-66
2023/01/24 10:41:49;;;;;;;1.90;1.10;;;18.90;52.50;;;;;;5022043;28;20032;-65
2023/01/24 10:44:23;;;;;;;2.15;1.25;;;19.00;52.60;;;;;;5017112;28;20116;-65
2023/01/24 10:47:08;;;;;;;1.67;1.25;;;18.90;52.50;;;;;;5020996;28;20449;-66
2023/01/24 10:49:39;;;;;;;1.73;1.25;;;18.90;52.50;;;;;;5020307;28;20053;-66
2023/01/24 10:52:14;;;;;;;1.35;1.10;;;18.90;52.50;;;;;;5019551;28;20146;-65
2023/01/24 10:54:48;;;;;;;2.30;1.23;;;18.90;52.50;;;;;;5020134;28;20022;-66
2023/01/24 10:57:41;;;;;;;1.88;1.25;;;18.90;52.50;;;;;;5017860;28;20029;-66
2023/01/24 11:00:49;;;;;;;1.92;1.30;;;18.90;52.50;;;;;;5019042;28;20527;-66
2023/01/24 11:03:21;;;;;;;1.60;1.10;;;18.90;52.50;;;;;;5022072;28;20029;-66
2023/01/24 11:05:53;;;;;;;1.70;1.20;;;18.90;52.50;;;;;;5018779;28;20140;-66
2023/01/24 11:08:36;;;;;;;2.00;1.38;;;18.90;52.50;;;;;;5019434;28;20179;-65
2023/01/24 11:11:16;;;;;;;2.03;1.25;;;18.90;52.50;;;;;;5018527;28;20022;-65
2023/01/24 11:13:43;;;;;;;1.83;1.13;;;18.90;52.50;;;;;;5020239;28;20033;-66
2023/01/24 11:16:14;;;;;;;2.10;1.13;;;19.00;52.60;;;;;;5036614;28;20493;-66
2023/01/24 11:18:47;;;;;;;1.90;1.20;;;19.00;52.60;;;;;;5018102;28;20028;-66
2023/01/24 11:21:15;;;;;;;1.92;1.20;;;18.90;52.50;;;;;;5019906;28;20073;-66
2023/01/24 11:23:42;;;;;;;2.23;1.40;;;19.00;52.60;;;;;;5020770;28;20499;-67
2023/01/24 11:26:31;;;;;;;1.95;1.35;;;18.90;52.50;;;;;;5018854;28;20108;-66
2023/01/24 11:29:08;;;;;;;2.10;1.30;;;18.90;52.40;;;;;;5021290;28;20041;-65
2023/01/24 11:31:42;;;;;;;1.77;1.20;;;18.90;52.40;;;;;;5018191;28;20064;-66
2023/01/24 11:34:30;;;;;;;1.80;1.25;;;18.90;52.30;;;;;;5019625;28;20362;-66
2023/01/24 11:37:01;;;;;;;1.95;1.25;;;18.90;52.20;;;;;;5020054;28;20481;-66
2023/01/24 11:40:12;;;;;;;2.00;1.30;;;18.90;52.20;;;;;;5019277;28;20033;-66
2023/01/24 11:43:12;;;;;;;2.35;1.40;;;18.90;52.20;;;;;;5019891;28;20481;-66
2023/01/24 11:46:16;;;;;;;1.98;1.30;;;18.90;52.20;;;;;;5019488;28;20030;-66
2023/01/24 11:49:13;;;;;;;1.90;1.20;;;19.00;52.40;;;;;;5014988;28;20393;-68
2023/01/24 11:52:04;;;;;;;1.90;1.23;;;19.00;52.60;;;;;;5017894;28;20481;-68
2023/01/24 11:55:11;;;;;;;1.83;1.20;;;19.10;52.60;;;;;;5020895;28;20128;-68
2023/01/24 11:57:52;;;;;;;2.13;1.40;;;19.20;52.30;;;;;;5023607;28;20022;-67
2023/01/24 12:00:44;;;;;;;2.17;1.45;;;19.40;52.10;;;;;;5018141;28;20060;-67
2023/01/24 12:03:53;;;;;;;2.22;1.45;;;19.50;51.90;;;;;;5022315;28;20445;-67
2023/01/24 12:06:31;;;;;;;1.75;1.25;;;19.70;51.70;;;;;;5019685;28;20033;-67
2023/01/24 12:09:11;;;;;;;2.47;1.60;;;19.80;51.40;;;;;;5021518;28;20034;-67
2023/01/24 12:11:53;;;;;;;2.17;1.38;;;19.80;51.30;;;;;;5037464;28;20022;-68
2023/01/24 12:14:22;;;;;;;1.52;1.20;;;20.00;51.20;;;;;;5020324;28;20113;-67
2023/01/24 12:16:56;;;;;;;2.00;1.30;;;20.10;51.00;;;;;;5022965;28;20037;-71
2023/01/24 12:19:36;;;;;;;2.80;1.50;;;20.20;50.80;;;;;;5023274;28;20036;-69
2023/01/24 12:22:10;;;;;;;2.15;1.30;;;20.30;50.70;;;;;;5018664;28;20083;-68
2023/01/24 12:24:39;;;;;;;2.30;1.50;;;20.40;50.50;;;;;;5019858;28;20037;-70
2023/01/24 12:27:14;;;;;;;2.85;1.42;;;20.40;50.40;;;;;;5018410;28;20080;-68
2023/01/24 12:29:47;;;;;;;2.20;1.40;;;20.50;50.20;;;;;;5034431;28;20037;-68
2023/01/24 12:32:36;;;;;;;2.58;1.70;;;20.60;50.10;;;;;;5019562;28;20029;-68
2023/01/24 12:35:15;;;;;;;3.33;1.70;;;20.70;50.00;;;;;;5020345;28;20347;-69
2023/01/24 12:37:46;;;;;;;2.58;1.40;;;20.70;49.80;;;;;;5016549;28;20506;-68
2023/01/24 12:40:11;;;;;;;5.28;1.85;;;20.80;49.80;;;;;;5019606;28;20028;-68
2023/01/24 12:43:07;;;;;;;2.67;1.60;;;20.90;49.60;;;;;;5019065;28;20018;-71
2023/01/24 12:45:56;;;;;;;3.22;1.63;;;21.00;49.40;;;;;;5016175;28;20489;-68
2023/01/24 12:48:46;;;;;;;2.83;1.60;;;21.10;49.20;;;;;;5017643;28;20496;-69
2023/01/24 12:51:24;;;;;;;3.42;1.40;;;21.20;49.10;;;;;;5020116;28;20096;-70
2023/01/24 12:53:56;;;;;;;3.08;1.80;;;21.30;49.00;;;;;;5018433;28;20056;-69
2023/01/24 12:56:27;;;;;;;2.17;1.42;;;21.30;48.70;;;;;;5016282;28;20029;-67
2023/01/24 12:58:55;;;;;;;2.53;1.40;;;21.40;49.00;;;;;;5015069;28;20117;-69
2023/01/24 13:01:27;;;;;;;3.10;1.43;;;21.40;48.80;;;;;;5014475;28;20084;-69
2023/01/24 13:04:10;;;;;;;2.15;1.50;;;21.50;48.70;;;;;;5021591;28;20026;-70
2023/01/24 13:07:13;;;;;;;2.30;1.42;;;21.60;48.60;;;;;;5018046;28;20051;-68
2023/01/24 13:10:10;;;;;;;2.58;1.35;;;21.70;48.30;;;;;;5024449;28;20024;-67
2023/01/24 13:12:36;;;;;;;2.70;1.42;;;21.80;48.20;;;;;;5024790;28;20116;-67
2023/01/24 13:15:04;;;;;;;2.95;1.52;;;21.90;48.10;;;;;;5023968;28;20149;-68
2023/01/24 13:17:57;;;;;;;3.42;1.90;;;21.90;47.90;;;;;;5021918;28;20876;-67
2023/01/24 13:20:58;;;;;;;4.75;2.22;;;22.00;47.90;;;;;;5018576;28;20025;-68
2023/01/24 13:23:35;;;;;;;8.63;3.35;;;22.10;47.50;;;;;;5021839;28;20040;-68
2023/01/24 13:26:03;;;;;;;7.75;5.60;;;22.20;47.40;;;;;;5020257;28;20520;-68
2023/01/24 13:28:41;;;;;;;9.98;7.20;;;22.20;47.30;;;;;;5020690;28;20025;-67
2023/01/24 13:31:29;;;;;;;12.05;8.65;;;22.20;47.20;;;;;;5024017;28;20021;-67
2023/01/24 13:33:59;;;;;;;15.80;11.60;;;22.20;47.20;;;;;;5020479;28;20552;-68
2023/01/24 13:36:35;;;;;;;20.85;16.55;;;22.20;47.20;;;;;;5023149;28;20029;-68
2023/01/24 13:39:01;;;;;;;24.67;17.90;;;22.20;47.20;;;;;;5020680;28;20053;-67
2023/01/24 13:41:27;;;;;;;23.55;18.48;;;22.20;47.20;;;;;;5021485;28;20041;-68
2023/01/24 13:44:24;;;;;;;23.08;19.02;;;22.10;47.10;;;;;;5017984;28;20033;-68